Albia, Iowa
Current Conditions -  °F | °C
As of 11:53 PM on Thursday 18 Dec 2014 (Local Time) from KOTM Reporting Station
Overcast Overcast  
Wind Chill: 27°   Ceiling: 2900
Heat Index: 27°   Visibility: 8mi
Dew Point: 23°   Wind: 0mph
Humidity: 85%   Direction: NA
Pressure: 30.28"   Gusts: NA
Location:  41.03°N, 92.81°W
Report Text: KOTM 190553Z AUTO 00000KT 8SM BKN029 BKN050 OVC065 M03/M05 A3028 RMK AO2 SLP266 T10281050 11028 21033 410281078 50003
Loading
Personal Weather Stations






























Interactive Weather Map New forecast layout! Learn more

10-Day Weather Forecast

Advertisements
Track Severe Weather on mobile